Time;durP1;ratioP1;P1;durP2;ratioP2;P2;SDS_P1;SDS_P2;PMS_P1;PMS_P2;Temp;Humidity;BMP_temperature;BMP_pressure;BME280_temperature;BME280_humidity;BME280_pressure;Samples;Min_cycle;Max_cycle;Signal;HPM_P1;HPM_P2
2023/03/15 00:00:11;;;;;;;1.50;1.30;;;1.70;99.90;;;;;;5045442;28;20228;-64
2023/03/15 00:02:37;;;;;;;4.40;1.57;;;1.60;99.90;;;;;;5046692;28;20178;-64
2023/03/15 00:05:03;;;;;;;7.33;1.73;;;1.70;99.90;;;;;;5046667;28;20444;-64
2023/03/15 00:07:30;;;;;;;5.33;1.80;;;1.80;99.90;;;;;;5045269;28;20438;-65
2023/03/15 00:09:55;;;;;;;4.20;1.37;;;1.80;99.90;;;;;;5046665;28;20467;-64
2023/03/15 00:12:24;;;;;;;4.00;1.77;;;1.70;99.90;;;;;;5044460;28;20402;-64
2023/03/15 00:14:50;;;;;;;3.37;2.03;;;1.70;99.90;;;;;;5046596;28;20227;-64
2023/03/15 00:17:16;;;;;;;1.40;1.30;;;1.70;99.90;;;;;;5045193;28;20405;-63
2023/03/15 00:19:42;;;;;;;4.60;1.90;;;1.60;99.90;;;;;;5046507;28;20405;-63
2023/03/15 00:22:08;;;;;;;2.10;1.90;;;1.40;99.90;;;;;;5046659;28;20167;-64
2023/03/15 00:24:33;;;;;;;1.80;1.47;;;1.70;99.90;;;;;;5046041;28;20183;-64
2023/03/15 00:26:59;;;;;;;2.63;1.93;;;1.70;99.90;;;;;;5046615;28;20495;-63
2023/03/15 00:29:25;;;;;;;4.70;1.70;;;1.60;99.90;;;;;;5044440;28;20172;-64
2023/03/15 00:31:50;;;;;;;5.50;1.40;;;1.70;99.90;;;;;;5046496;28;20283;-64
2023/03/15 00:34:17;;;;;;;2.70;1.50;;;1.80;99.90;;;;;;5044865;28;20207;-62
2023/03/15 00:36:44;;;;;;;2.27;1.20;;;1.70;99.90;;;;;;5046500;28;20159;-64
2023/03/15 00:39:10;;;;;;;2.43;1.20;;;1.60;99.90;;;;;;5046571;28;20900;-64
2023/03/15 00:41:36;;;;;;;7.60;2.07;;;1.60;99.90;;;;;;5045441;28;20416;-64
2023/03/15 00:44:03;;;;;;;2.00;1.30;;;1.70;99.90;;;;;;5046172;28;20934;-64
2023/03/15 00:46:29;;;;;;;1.73;1.20;;;1.60;99.90;;;;;;5044786;28;20424;-64
2023/03/15 00:48:54;;;;;;;2.43;1.40;;;1.60;99.90;;;;;;5045838;28;20421;-64
2023/03/15 00:51:22;;;;;;;4.50;1.93;;;1.60;99.90;;;;;;5045548;28;20530;-64
2023/03/15 00:53:50;;;;;;;1.20;1.10;;;1.60;99.90;;;;;;5046111;28;20614;-64
2023/03/15 00:56:24;;;;;;;1.53;1.43;;;1.60;99.90;;;;;;5045489;28;20492;-64
2023/03/15 00:58:53;;;;;;;2.43;1.67;;;1.50;99.90;;;;;;5038674;28;20445;-64
2023/03/15 01:01:23;;;;;;;4.50;1.80;;;1.60;99.90;;;;;;5045065;28;20410;-65
2023/03/15 01:03:49;;;;;;;3.43;1.30;;;1.60;99.90;;;;;;5045833;28;20548;-64
2023/03/15 01:06:17;;;;;;;4.80;1.53;;;1.60;99.90;;;;;;5045701;28;20417;-64
2023/03/15 01:08:43;;;;;;;3.33;2.20;;;1.60;99.90;;;;;;5045948;28;20984;-66
2023/03/15 01:11:13;;;;;;;1.93;1.77;;;1.50;99.90;;;;;;5044601;28;20449;-68
2023/03/15 01:13:39;;;;;;;1.10;0.93;;;1.50;99.90;;;;;;5035154;28;20975;-63
2023/03/15 01:16:06;;;;;;;4.63;1.20;;;1.60;99.90;;;;;;5033414;28;20514;-64
2023/03/15 01:18:31;;;;;;;1.40;1.07;;;1.60;99.90;;;;;;5040673;28;20418;-63
2023/03/15 01:20:58;;;;;;;5.67;1.67;;;1.60;99.90;;;;;;5043134;28;20413;-65
2023/03/15 01:23:24;;;;;;;2.30;1.83;;;1.60;99.90;;;;;;5044406;28;20572;-64
2023/03/15 01:25:49;;;;;;;6.73;1.60;;;1.50;99.90;;;;;;5043579;28;20409;-64
2023/03/15 01:28:15;;;;;;;10.00;2.63;;;1.40;99.90;;;;;;5044537;28;20178;-64
2023/03/15 01:30:49;;;;;;;2.70;1.60;;;1.30;99.90;;;;;;5040892;28;20195;-66
2023/03/15 01:33:14;;;;;;;2.60;2.30;;;1.40;99.90;;;;;;5044259;28;20441;-63
2023/03/15 01:35:40;;;;;;;2.70;1.63;;;1.30;99.90;;;;;;5040705;28;20449;-63
2023/03/15 01:38:05;;;;;;;2.20;1.00;;;1.30;99.90;;;;;;5044094;28;20732;-64
2023/03/15 01:40:31;;;;;;;1.67;1.27;;;1.30;99.90;;;;;;5043443;28;20730;-64
2023/03/15 01:43:03;;;;;;;7.70;1.30;;;1.40;99.90;;;;;;5041886;28;20204;-64
2023/03/15 01:45:50;;;;;;;7.10;1.73;;;1.30;99.90;;;;;;5043531;28;20530;-63
2023/03/15 01:48:16;;;;;;;4.80;1.30;;;1.30;99.90;;;;;;5044554;28;20429;-64
2023/03/15 01:50:42;;;;;;;2.90;2.03;;;1.40;99.90;;;;;;5044786;28;20453;-64
2023/03/15 01:53:08;;;;;;;1.87;1.63;;;1.40;99.90;;;;;;5045170;28;20488;-64
2023/03/15 01:55:34;;;;;;;2.03;1.37;;;1.40;99.90;;;;;;5044013;28;20971;-64
2023/03/15 01:58:00;;;;;;;1.20;1.10;;;1.40;99.90;;;;;;5044608;28;20493;-62
2023/03/15 02:00:26;;;;;;;3.30;1.60;;;1.20;99.90;;;;;;5042729;28;20249;-64
2023/03/15 02:03:15;;;;;;;4.17;1.67;;;1.20;99.90;;;;;;5044669;28;20429;-63
2023/03/15 02:05:46;;;;;;;1.37;1.27;;;1.30;99.90;;;;;;5033159;28;20265;-63
2023/03/15 02:08:14;;;;;;;1.60;1.50;;;1.40;99.90;;;;;;5044408;28;20429;-63
2023/03/15 02:10:46;;;;;;;2.70;1.90;;;1.30;99.90;;;;;;5044371;28;20549;-63
2023/03/15 02:13:16;;;;;;;5.23;1.80;;;1.30;99.90;;;;;;5044341;28;20469;-63
2023/03/15 02:15:45;;;;;;;3.13;1.50;;;1.30;99.90;;;;;;5042390;28;20896;-63
2023/03/15 02:18:12;;;;;;;5.07;2.30;;;1.40;99.90;;;;;;5044303;28;20508;-63
2023/03/15 02:20:49;;;;;;;1.70;1.60;;;1.40;99.90;;;;;;5042639;28;20413;-63
2023/03/15 02:23:18;;;;;;;4.73;1.83;;;1.40;99.90;;;;;;5033223;28;20434;-63
2023/03/15 02:25:51;;;;;;;2.40;1.53;;;1.40;99.90;;;;;;5044298;28;20801;-63
2023/03/15 02:28:18;;;;;;;2.20;1.57;;;1.30;99.90;;;;;;5043788;28;20420;-64
2023/03/15 02:30:44;;;;;;;3.17;1.87;;;1.40;99.90;;;;;;5040411;28;20508;-63
2023/03/15 02:33:33;;;;;;;2.53;1.93;;;1.40;99.90;;;;;;5035761;28;20469;-63
2023/03/15 02:36:26;;;;;;;2.53;2.30;;;1.30;99.90;;;;;;5036276;28;20909;-64
2023/03/15 02:38:53;;;;;;;3.80;1.70;;;1.20;99.90;;;;;;5031301;28;20850;-65
2023/03/15 02:41:43;;;;;;;7.73;2.00;;;1.10;99.90;;;;;;5042418;28;20413;-64
2023/03/15 02:44:30;;;;;;;4.47;2.33;;;1.30;99.90;;;;;;5042357;28;20950;-64
2023/03/15 02:47:08;;;;;;;3.37;2.50;;;1.20;99.90;;;;;;5032355;28;20421;-64
2023/03/15 02:49:39;;;;;;;5.13;2.53;;;1.10;99.90;;;;;;5042472;28;20407;-64
2023/03/15 02:52:05;;;;;;;10.60;3.57;;;1.00;99.90;;;;;;5043773;28;20409;-64
2023/03/15 02:54:33;;;;;;;3.07;2.07;;;1.00;99.90;;;;;;5040039;28;20419;-66
2023/03/15 02:57:02;;;;;;;5.10;2.60;;;1.00;99.90;;;;;;5040801;28;20445;-64
2023/03/15 02:59:28;;;;;;;5.17;2.43;;;1.00;99.90;;;;;;5041216;28;20460;-64
2023/03/15 03:01:53;;;;;;;9.43;2.40;;;1.00;99.90;;;;;;5043669;28;20409;-64
2023/03/15 03:04:19;;;;;;;3.43;2.47;;;0.90;99.90;;;;;;5041735;28;20798;-64
2023/03/15 03:06:45;;;;;;;1.80;1.70;;;0.90;99.90;;;;;;5043541;28;20193;-63
2023/03/15 03:09:11;;;;;;;5.13;1.33;;;0.90;99.90;;;;;;5043494;28;20406;-62
2023/03/15 03:11:37;;;;;;;6.10;1.70;;;1.00;99.90;;;;;;5046228;28;20207;-63
2023/03/15 03:14:03;;;;;;;4.03;2.07;;;1.10;99.90;;;;;;5042961;28;20441;-63
2023/03/15 03:16:28;;;;;;;1.40;1.30;;;1.00;99.90;;;;;;5039720;28;20439;-64
2023/03/15 03:18:54;;;;;;;2.07;1.50;;;0.90;99.90;;;;;;5043348;28;20416;-64
2023/03/15 03:21:19;;;;;;;11.60;2.23;;;0.90;99.90;;;;;;5036138;28;20175;-63
2023/03/15 03:23:45;;;;;;;5.23;1.53;;;0.80;99.90;;;;;;5043209;28;20336;-63
2023/03/15 03:26:17;;;;;;;6.20;2.93;;;0.80;99.90;;;;;;5040729;28;20262;-64
2023/03/15 03:28:46;;;;;;;2.20;1.70;;;0.80;99.90;;;;;;5029337;28;20520;-64
2023/03/15 03:31:20;;;;;;;3.33;1.40;;;1.00;99.90;;;;;;5042925;28;20557;-64
2023/03/15 03:33:46;;;;;;;1.40;1.30;;;1.20;99.90;;;;;;5030227;28;20491;-64
2023/03/15 03:36:12;;;;;;;5.83;1.60;;;1.20;99.90;;;;;;5041043;28;20463;-65
2023/03/15 03:38:42;;;;;;;11.83;2.40;;;1.30;99.90;;;;;;5039612;28;20409;-65
2023/03/15 03:41:09;;;;;;;2.27;1.33;;;1.40;99.90;;;;;;5042409;28;20542;-65
2023/03/15 03:43:35;;;;;;;3.40;1.43;;;1.50;99.90;;;;;;5041916;28;20438;-65
2023/03/15 03:46:02;;;;;;;1.40;1.30;;;1.50;99.90;;;;;;5044363;28;21023;-65
2023/03/15 03:48:28;;;;;;;4.13;1.67;;;1.60;99.90;;;;;;5040996;28;20417;-64
2023/03/15 03:50:53;;;;;;;4.83;2.10;;;1.60;99.90;;;;;;5037898;28;20532;-65
2023/03/15 03:53:19;;;;;;;3.77;2.07;;;1.60;99.90;;;;;;5042108;28;20441;-65
2023/03/15 03:55:45;;;;;;;9.87;2.00;;;1.50;99.90;;;;;;5039023;28;20312;-64
2023/03/15 03:58:11;;;;;;;4.93;1.70;;;1.40;99.90;;;;;;5039185;28;20176;-65
2023/03/15 04:00:37;;;;;;;3.47;2.07;;;1.40;99.90;;;;;;5042397;28;20409;-65
2023/03/15 04:03:02;;;;;;;3.03;1.90;;;1.30;99.90;;;;;;5042159;28;20898;-64
2023/03/15 04:05:28;;;;;;;5.10;2.17;;;1.30;99.90;;;;;;5041183;28;20560;-65
2023/03/15 04:07:54;;;;;;;2.20;1.47;;;1.30;99.90;;;;;;5043910;28;20207;-64
2023/03/15 04:10:25;;;;;;;4.03;1.70;;;1.30;99.90;;;;;;5040043;28;20450;-64
2023/03/15 04:12:55;;;;;;;1.17;1.07;;;1.20;99.90;;;;;;5044699;28;20237;-63
2023/03/15 04:15:22;;;;;;;4.97;2.43;;;1.20;99.90;;;;;;5036884;28;20831;-64
2023/03/15 04:17:48;;;;;;;3.70;1.77;;;1.00;99.90;;;;;;5036896;28;20412;-64
2023/03/15 04:20:16;;;;;;;6.07;2.77;;;1.00;99.90;;;;;;5041442;28;20509;-65
2023/03/15 04:22:48;;;;;;;5.60;2.80;;;1.00;99.90;;;;;;5029945;28;20476;-64
2023/03/15 04:25:14;;;;;;;3.43;1.40;;;1.10;99.90;;;;;;5041541;28;20402;-64
2023/03/15 04:27:40;;;;;;;2.47;1.30;;;1.00;99.90;;;;;;5030097;28;20413;-65
2023/03/15 04:30:07;;;;;;;4.50;1.93;;;1.00;99.90;;;;;;5043368;28;20453;-64
2023/03/15 04:32:32;;;;;;;3.20;1.73;;;1.10;99.90;;;;;;5040507;28;20638;-64
2023/03/15 04:34:58;;;;;;;2.00;1.30;;;1.10;99.90;;;;;;5037024;28;20413;-64
2023/03/15 04:37:24;;;;;;;3.60;2.10;;;1.00;99.90;;;;;;5039014;28;20172;-65
2023/03/15 04:39:51;;;;;;;2.17;1.20;;;0.90;99.90;;;;;;5034713;28;20175;-64
2023/03/15 04:42:17;;;;;;;2.50;1.70;;;0.80;99.90;;;;;;5040990;28;20555;-65
2023/03/15 04:44:42;;;;;;;2.77;1.73;;;0.80;99.90;;;;;;5044411;28;20432;-65
2023/03/15 04:47:08;;;;;;;3.80;1.53;;;0.80;99.90;;;;;;5041479;28;20410;-64
2023/03/15 04:49:34;;;;;;;8.33;1.73;;;0.80;99.90;;;;;;5045193;28;20534;-65
2023/03/15 04:51:59;;;;;;;2.40;1.73;;;0.80;99.90;;;;;;5047463;28;20266;-65
2023/03/15 04:54:25;;;;;;;4.50;1.80;;;0.90;99.90;;;;;;5042407;28;20709;-65
2023/03/15 04:56:51;;;;;;;5.77;1.63;;;0.90;99.90;;;;;;5039317;28;20262;-65
2023/03/15 04:59:16;;;;;;;1.90;1.70;;;0.90;99.90;;;;;;5043515;28;20179;-65
2023/03/15 05:01:42;;;;;;;3.10;1.50;;;0.90;99.90;;;;;;5045881;28;20644;-64
2023/03/15 05:04:07;;;;;;;6.90;2.47;;;0.90;99.90;;;;;;5045210;28;20208;-65
2023/03/15 05:06:33;;;;;;;9.53;1.50;;;0.90;99.90;;;;;;5044660;28;20186;-65
2023/03/15 05:08:59;;;;;;;4.43;1.93;;;1.00;99.90;;;;;;5047259;28;20184;-65
2023/03/15 05:11:24;;;;;;;1.73;1.10;;;1.00;99.90;;;;;;5043477;28;20218;-65
2023/03/15 05:13:50;;;;;;;1.50;1.40;;;1.00;99.90;;;;;;5045791;28;20434;-64
2023/03/15 05:16:16;;;;;;;6.10;2.50;;;1.00;99.90;;;;;;5043297;28;20194;-65
2023/03/15 05:18:44;;;;;;;5.80;1.80;;;1.00;99.90;;;;;;5045665;28;20178;-65
2023/03/15 05:21:11;;;;;;;4.50;1.93;;;1.00;99.90;;;;;;5044815;28;20426;-65
2023/03/15 05:23:37;;;;;;;11.93;1.80;;;1.10;99.90;;;;;;5045182;28;20445;-63
2023/03/15 05:26:03;;;;;;;5.13;1.37;;;1.00;99.90;;;;;;5046352;28;20927;-64
2023/03/15 05:28:30;;;;;;;4.47;1.70;;;1.00;99.90;;;;;;5043871;28;20434;-63
2023/03/15 05:30:56;;;;;;;3.37;1.70;;;1.00;99.90;;;;;;5045364;28;20480;-64
2023/03/15 05:33:23;;;;;;;3.30;2.23;;;1.10;99.90;;;;;;5042741;28;20453;-64
2023/03/15 05:35:49;;;;;;;9.80;3.37;;;1.10;99.90;;;;;;5045119;28;20416;-65
2023/03/15 05:38:15;;;;;;;4.77;1.50;;;1.20;99.90;;;;;;5042772;28;20415;-65
2023/03/15 05:40:42;;;;;;;3.57;2.40;;;1.20;99.90;;;;;;5031127;28;20171;-64
2023/03/15 05:43:08;;;;;;;11.13;2.10;;;1.30;99.90;;;;;;5048125;28;20674;-64
2023/03/15 05:45:33;;;;;;;4.57;1.73;;;1.40;99.90;;;;;;5043350;28;20931;-63
2023/03/15 05:47:59;;;;;;;5.40;1.67;;;1.50;99.90;;;;;;5044476;28;20183;-65
2023/03/15 05:50:26;;;;;;;3.30;1.67;;;1.70;99.90;;;;;;5043207;28;20726;-64
2023/03/15 05:52:52;;;;;;;3.03;1.50;;;1.80;99.90;;;;;;5044446;28;20198;-64
2023/03/15 05:55:18;;;;;;;2.60;1.60;;;1.90;99.90;;;;;;5042962;28;20414;-64
2023/03/15 05:57:43;;;;;;;2.40;1.27;;;1.90;99.90;;;;;;5042428;28;20175;-64
2023/03/15 06:00:09;;;;;;;3.53;1.47;;;1.90;99.90;;;;;;5044148;28;20204;-64
2023/03/15 06:02:35;;;;;;;10.57;2.37;;;1.90;99.90;;;;;;5042553;28;20263;-65
2023/03/15 06:05:01;;;;;;;2.00;1.80;;;2.00;99.90;;;;;;5043851;28;20488;-65
2023/03/15 06:07:26;;;;;;;2.97;1.80;;;2.10;99.90;;;;;;5043240;28;20554;-64
2023/03/15 06:09:52;;;;;;;2.80;1.77;;;2.00;99.90;;;;;;5043945;28;20187;-64
2023/03/15 06:12:18;;;;;;;2.33;1.70;;;2.00;99.90;;;;;;5043467;28;20559;-63
2023/03/15 06:14:44;;;;;;;10.33;2.53;;;2.00;99.90;;;;;;5042198;28;20574;-64
2023/03/15 06:17:10;;;;;;;6.77;2.23;;;2.20;99.90;;;;;;5043783;28;20409;-64
2023/03/15 06:19:35;;;;;;;1.83;1.60;;;2.20;99.90;;;;;;5042313;28;20167;-65
2023/03/15 06:22:02;;;;;;;5.13;2.03;;;2.40;99.90;;;;;;5044043;28;20182;-65
2023/03/15 06:24:28;;;;;;;2.30;1.53;;;2.70;99.90;;;;;;5045584;28;20214;-65
2023/03/15 06:26:55;;;;;;;6.67;1.77;;;2.90;99.90;;;;;;5044110;28;20965;-65
2023/03/15 06:29:21;;;;;;;3.03;1.93;;;2.90;99.90;;;;;;5042997;28;20751;-65
2023/03/15 06:31:48;;;;;;;2.40;1.77;;;2.90;99.90;;;;;;5042594;28;20885;-64
2023/03/15 06:34:14;;;;;;;9.23;1.67;;;2.80;99.90;;;;;;5043342;28;20449;-65
2023/03/15 06:36:41;;;;;;;4.63;1.40;;;2.90;99.90;;;;;;5040983;28;20409;-65
2023/03/15 06:39:07;;;;;;;3.63;1.83;;;2.80;99.90;;;;;;5043831;28;20475;-66
2023/03/15 06:41:33;;;;;;;8.27;2.03;;;2.80;99.90;;;;;;5042858;28;20422;-64
2023/03/15 06:43:59;;;;;;;6.60;2.10;;;2.60;99.90;;;;;;5040763;28;20438;-65
2023/03/15 06:46:24;;;;;;;5.20;1.87;;;2.50;99.90;;;;;;5048040;28;20240;-64
2023/03/15 06:48:50;;;;;;;5.47;2.03;;;2.50;99.90;;;;;;5042558;28;20414;-64
2023/03/15 06:51:16;;;;;;;5.77;3.53;;;2.40;99.90;;;;;;5047696;28;20214;-64
2023/03/15 06:53:41;;;;;;;4.03;2.10;;;2.40;99.90;;;;;;5039604;28;20187;-64
2023/03/15 06:56:07;;;;;;;3.30;2.50;;;2.40;99.90;;;;;;5039851;28;20265;-64
2023/03/15 06:58:32;;;;;;;5.90;1.63;;;2.40;99.90;;;;;;5045825;28;20174;-64
2023/03/15 07:00:58;;;;;;;6.80;2.17;;;2.30;99.90;;;;;;5039741;28;20555;-64
2023/03/15 07:03:24;;;;;;;6.30;3.27;;;2.30;99.90;;;;;;5047204;28;20260;-64
2023/03/15 07:05:53;;;;;;;7.13;2.83;;;2.40;99.90;;;;;;5039609;28;20271;-64
2023/03/15 07:08:21;;;;;;;4.73;2.20;;;2.60;99.90;;;;;;5038917;28;20664;-65
2023/03/15 07:10:47;;;;;;;4.97;2.43;;;2.60;99.90;;;;;;5039564;28;20873;-64
2023/03/15 07:13:13;;;;;;;6.37;3.03;;;2.80;99.90;;;;;;5031923;28;20463;-67
2023/03/15 07:15:39;;;;;;;7.50;3.70;;;2.90;99.90;;;;;;5045249;28;20473;-64
2023/03/15 07:18:05;;;;;;;4.40;2.03;;;3.00;99.90;;;;;;5039315;28;20768;-64
2023/03/15 07:20:31;;;;;;;6.00;2.40;;;2.90;99.90;;;;;;5047189;28;20428;-64
2023/03/15 07:22:57;;;;;;;6.00;2.70;;;2.90;99.90;;;;;;5039330;28;20438;-64
2023/03/15 07:25:24;;;;;;;5.57;3.40;;;3.20;99.90;;;;;;5046906;28;20185;-63
2023/03/15 07:27:50;;;;;;;6.33;3.57;;;3.40;99.90;;;;;;5039370;28;20184;-62
2023/03/15 07:30:16;;;;;;;11.13;4.00;;;3.40;99.90;;;;;;5039811;28;20454;-62
2023/03/15 07:32:43;;;;;;;13.90;4.37;;;3.40;99.90;;;;;;5043054;28;20479;-63
2023/03/15 07:35:09;;;;;;;8.33;3.50;;;3.40;99.90;;;;;;5039552;28;20410;-63
2023/03/15 07:37:34;;;;;;;5.43;3.03;;;3.30;99.90;;;;;;5046296;28;20413;-64
2023/03/15 07:40:08;;;;;;;2.70;2.50;;;3.30;99.90;;;;;;5039155;28;20413;-65
2023/03/15 07:42:35;;;;;;;2.90;2.37;;;3.40;99.90;;;;;;5044747;28;20306;-64
2023/03/15 07:45:02;;;;;;;3.13;1.83;;;3.40;99.90;;;;;;5042435;28;20508;-64
2023/03/15 07:47:27;;;;;;;4.57;2.23;;;3.30;99.90;;;;;;5040965;28;20414;-64
2023/03/15 07:49:53;;;;;;;7.40;2.90;;;3.20;99.90;;;;;;5042413;28;20417;-64
2023/03/15 07:52:20;;;;;;;2.33;1.80;;;3.20;99.90;;;;;;5041535;28;20226;-64
2023/03/15 07:54:46;;;;;;;3.17;2.40;;;3.30;99.90;;;;;;5042297;28;20215;-64
2023/03/15 07:57:11;;;;;;;2.30;2.10;;;3.40;99.90;;;;;;5040573;28;20413;-64
2023/03/15 07:59:37;;;;;;;2.40;2.10;;;3.40;99.90;;;;;;5041920;28;20406;-64
2023/03/15 08:02:03;;;;;;;5.80;2.30;;;3.40;99.90;;;;;;5039794;28;20193;-64
2023/03/15 08:04:28;;;;;;;4.00;2.20;;;3.30;99.90;;;;;;5040194;28;20222;-64
2023/03/15 08:06:54;;;;;;;3.13;2.17;;;3.30;99.90;;;;;;5043301;28;20186;-64
2023/03/15 08:09:19;;;;;;;5.07;2.33;;;3.30;99.90;;;;;;5039329;28;20259;-65
2023/03/15 08:11:45;;;;;;;3.57;2.43;;;3.30;99.90;;;;;;5039967;28;20203;-65
2023/03/15 08:14:11;;;;;;;2.67;1.83;;;3.30;99.90;;;;;;5033697;28;20253;-65
2023/03/15 08:16:40;;;;;;;11.97;2.93;;;3.50;99.90;;;;;;5041150;28;20175;-65
2023/03/15 08:19:05;;;;;;;3.67;2.40;;;3.60;99.90;;;;;;5039790;28;20475;-64
2023/03/15 08:21:34;;;;;;;3.67;1.90;;;3.60;99.90;;;;;;5044804;28;20414;-64
2023/03/15 08:24:00;;;;;;;5.30;2.50;;;3.50;99.90;;;;;;5046110;28;20234;-65
2023/03/15 08:26:26;;;;;;;6.83;2.70;;;3.50;99.90;;;;;;5043448;28;20513;-66
2023/03/15 08:28:52;;;;;;;5.03;2.20;;;3.50;99.90;;;;;;5045607;28;20864;-65
2023/03/15 08:31:20;;;;;;;4.23;2.10;;;3.40;99.90;;;;;;5038627;28;20708;-64
2023/03/15 08:33:51;;;;;;;5.03;1.87;;;3.40;99.90;;;;;;5045503;28;20210;-74
2023/03/15 08:36:17;;;;;;;3.47;3.17;;;3.60;99.90;;;;;;5040965;28;20410;-67
2023/03/15 08:38:43;;;;;;;5.90;3.20;;;3.50;99.90;;;;;;5045665;28;20431;-69
2023/03/15 08:41:09;;;;;;;6.90;5.20;;;3.60;99.90;;;;;;5031424;28;20427;-68
2023/03/15 08:43:45;;;;;;;3.60;2.53;;;3.70;99.90;;;;;;5044985;28;20202;-67
2023/03/15 08:46:11;;;;;;;6.67;2.40;;;3.60;99.90;;;;;;5046824;28;20417;-64
2023/03/15 08:48:37;;;;;;;2.87;2.10;;;3.50;99.90;;;;;;5031908;28;20468;-64
2023/03/15 08:51:05;;;;;;;4.10;2.10;;;3.50;99.90;;;;;;5035609;28;20449;-65
2023/03/15 08:53:34;;;;;;;4.30;1.73;;;3.60;99.90;;;;;;5047376;28;20737;-64
2023/03/15 08:56:00;;;;;;;4.87;2.30;;;3.60;99.90;;;;;;5032289;28;20591;-65
2023/03/15 08:58:26;;;;;;;2.30;1.80;;;3.60;99.90;;;;;;5047897;28;20588;-65
2023/03/15 09:00:52;;;;;;;2.50;1.93;;;3.80;99.90;;;;;;5042056;28;20853;-64
2023/03/15 09:03:22;;;;;;;13.40;2.20;;;3.70;99.90;;;;;;5040705;28;20525;-65
2023/03/15 09:05:51;;;;;;;5.63;2.57;;;3.40;99.90;;;;;;5038693;28;20406;-65
2023/03/15 09:08:20;;;;;;;2.30;2.00;;;3.50;99.90;;;;;;5049069;28;20805;-64
2023/03/15 09:10:46;;;;;;;3.90;2.40;;;3.40;99.90;;;;;;5041292;28;20477;-65
2023/03/15 09:13:11;;;;;;;2.13;1.87;;;3.40;99.90;;;;;;5041608;28;20445;-64
2023/03/15 09:15:37;;;;;;;4.43;3.00;;;3.70;99.90;;;;;;5047714;28;20172;-65
2023/03/15 09:18:03;;;;;;;2.80;2.60;;;3.80;99.90;;;;;;5041310;28;20163;-64
2023/03/15 09:20:30;;;;;;;7.03;1.97;;;3.60;99.90;;;;;;5040782;28;20414;-64
2023/03/15 09:22:57;;;;;;;3.20;2.57;;;3.60;99.90;;;;;;5042496;28;20465;-64
2023/03/15 09:25:24;;;;;;;5.23;2.67;;;3.70;99.90;;;;;;5044149;28;20417;-65
2023/03/15 09:27:51;;;;;;;8.67;3.10;;;3.80;99.90;;;;;;5044494;28;20409;-65
2023/03/15 09:30:17;;;;;;;4.13;2.00;;;3.90;99.90;;;;;;5043561;28;20990;-64
2023/03/15 09:32:44;;;;;;;8.00;2.40;;;3.80;99.90;;;;;;5042464;28;20449;-65
2023/03/15 09:35:13;;;;;;;4.20;2.60;;;4.20;99.90;;;;;;5044376;28;20397;-64
2023/03/15 09:37:41;;;;;;;2.00;1.80;;;4.30;99.90;;;;;;5043401;28;20751;-64
2023/03/15 09:40:19;;;;;;;7.23;2.90;;;4.10;99.90;;;;;;5044606;28;20975;-64
2023/03/15 09:43:02;;;;;;;2.00;1.90;;;4.30;99.90;;;;;;5038663;28;20932;-65
2023/03/15 09:45:34;;;;;;;2.30;2.10;;;4.50;99.90;;;;;;5037437;28;20402;-64
2023/03/15 09:48:09;;;;;;;4.10;2.00;;;4.80;99.90;;;;;;5036354;28;20486;-64
2023/03/15 09:51:08;;;;;;;4.57;2.33;;;4.50;99.90;;;;;;5080481;22;20774;-68
2023/03/15 09:53:42;;;;;;;2.83;2.50;;;5.10;99.90;;;;;;5031937;28;20532;-68
2023/03/15 09:56:30;;;;;;;2.67;1.70;;;4.90;99.90;;;;;;5064409;28;20401;-66
2023/03/15 09:59:00;;;;;;;8.83;2.77;;;4.70;99.90;;;;;;5060113;28;20424;-69
2023/03/15 10:01:35;;;;;;;3.83;1.97;;;4.90;99.90;;;;;;5061103;28;20419;-69
2023/03/15 10:04:26;;;;;;;2.37;1.60;;;5.10;99.90;;;;;;5066163;28;20410;-69
2023/03/15 10:06:57;;;;;;;2.00;1.47;;;5.00;99.90;;;;;;5063513;28;20439;-69
2023/03/15 10:09:28;;;;;;;5.50;2.13;;;5.10;99.90;;;;;;5047488;28;20937;-68
2023/03/15 10:12:19;;;;;;;2.23;2.03;;;4.90;99.90;;;;;;5062048;28;20478;-68
2023/03/15 10:15:21;;;;;;;1.90;1.70;;;5.00;99.90;;;;;;5062350;28;20797;-70
2023/03/15 10:17:58;;;;;;;5.03;4.33;;;5.20;99.90;;;;;;5064031;28;20768;-69
2023/03/15 10:20:28;;;;;;;5.10;2.47;;;5.50;99.90;;;;;;5065239;28;20432;-68
2023/03/15 10:23:11;;;;;;;2.53;2.03;;;5.20;99.90;;;;;;5059510;28;20466;-69
2023/03/15 10:25:38;;;;;;;2.40;1.87;;;5.20;99.90;;;;;;5070636;28;20411;-70
2023/03/15 10:28:11;;;;;;;3.37;1.70;;;5.40;99.90;;;;;;5067739;28;20416;-70
2023/03/15 10:30:39;;;;;;;3.70;2.03;;;5.40;99.90;;;;;;5060552;28;20485;-69
2023/03/15 10:33:15;;;;;;;5.60;2.10;;;5.50;99.90;;;;;;5066476;28;20416;-69
2023/03/15 10:35:41;;;;;;;3.27;2.20;;;5.80;99.90;;;;;;5051118;28;20408;-69
2023/03/15 10:38:19;;;;;;;3.53;1.60;;;6.10;99.90;;;;;;5066087;28;20435;-69
2023/03/15 10:40:47;;;;;;;7.23;2.00;;;6.00;99.90;;;;;;5065052;28;20444;-69
2023/03/15 10:43:13;;;;;;;2.30;2.10;;;5.60;99.90;;;;;;5066963;28;20455;-69
2023/03/15 10:45:39;;;;;;;2.93;2.17;;;5.60;99.90;;;;;;5048281;28;20901;-68
2023/03/15 10:48:06;;;;;;;1.87;1.70;;;5.30;99.90;;;;;;5070806;28;20178;-67
2023/03/15 10:50:32;;;;;;;3.50;2.80;;;5.10;99.90;;;;;;5057410;28;20251;-68
2023/03/15 10:53:07;;;;;;;5.40;2.40;;;5.10;99.90;;;;;;5064983;28;20495;-67
2023/03/15 10:55:35;;;;;;;7.33;1.90;;;5.00;99.90;;;;;;5059403;28;20570;-68
2023/03/15 10:58:23;;;;;;;5.33;2.43;;;5.20;99.90;;;;;;5064920;28;20405;-66
2023/03/15 11:01:33;;;;;;;3.43;1.53;;;5.50;99.90;;;;;;5066488;28;20467;-69
2023/03/15 11:04:17;;;;;;;3.63;1.60;;;6.20;99.90;;;;;;5070858;28;20849;-67
2023/03/15 11:06:48;;;;;;;2.73;1.60;;;6.20;99.90;;;;;;5065525;28;20504;-68
2023/03/15 11:09:17;;;;;;;4.57;1.50;;;6.70;99.90;;;;;;5067616;28;20429;-68
2023/03/15 11:12:07;;;;;;;2.40;1.57;;;6.70;99.90;;;;;;5070300;28;20817;-69
2023/03/15 11:14:43;;;;;;;1.60;1.50;;;7.00;99.90;;;;;;5065171;28;20404;-68
2023/03/15 11:17:26;;;;;;;2.20;1.30;;;6.90;99.90;;;;;;5055952;28;20440;-69
2023/03/15 11:20:16;;;;;;;4.20;1.73;;;7.20;99.90;;;;;;5065020;28;20432;-69
2023/03/15 11:22:42;;;;;;;4.10;1.90;;;7.10;99.90;;;;;;5054510;28;20424;-68
2023/03/15 11:25:16;;;;;;;3.30;1.50;;;7.00;99.90;;;;;;5067735;28;20404;-68
2023/03/15 11:27:43;;;;;;;2.80;1.47;;;6.70;99.90;;;;;;5059035;28;20413;-68
2023/03/15 11:30:14;;;;;;;4.50;1.53;;;6.40;99.90;;;;;;5063948;28;20428;-68
2023/03/15 11:32:41;;;;;;;6.60;1.70;;;6.30;99.90;;;;;;5066657;28;20405;-68
2023/03/15 11:35:12;;;;;;;2.07;1.60;;;6.10;99.90;;;;;;5058155;28;20412;-69
2023/03/15 11:37:56;;;;;;;2.60;1.77;;;6.20;99.90;;;;;;5061614;28;20448;-68
2023/03/15 11:40:31;;;;;;;3.67;1.60;;;6.50;99.90;;;;;;5046466;28;20450;-69
2023/03/15 11:43:08;;;;;;;4.57;2.03;;;6.10;99.90;;;;;;5066800;28;20432;-68
2023/03/15 11:45:54;;;;;;;1.90;1.50;;;6.20;99.90;;;;;;5067618;28;20408;-68
2023/03/15 11:48:24;;;;;;;4.10;1.80;;;6.30;99.90;;;;;;5065053;28;20850;-69
2023/03/15 11:50:53;;;;;;;2.90;1.70;;;6.20;99.90;;;;;;5062643;28;20467;-69
2023/03/15 11:53:22;;;;;;;5.63;1.70;;;6.40;99.90;;;;;;5061437;28;20432;-69
2023/03/15 11:55:53;;;;;;;5.00;1.80;;;6.30;99.90;;;;;;5063812;28;20417;-70
2023/03/15 11:58:43;;;;;;;3.80;2.23;;;6.20;99.90;;;;;;5066457;28;20416;-68
2023/03/15 12:01:10;;;;;;;2.60;1.50;;;6.00;99.90;;;;;;5065125;28;20490;-67
2023/03/15 12:03:43;;;;;;;2.10;1.33;;;5.90;99.90;;;;;;5068376;28;20523;-69
2023/03/15 12:06:18;;;;;;;3.37;2.40;;;6.40;99.90;;;;;;5062186;28;20414;-69
2023/03/15 12:08:54;;;;;;;1.70;1.23;;;7.00;99.90;;;;;;5043864;28;20419;-69
2023/03/15 12:11:19;;;;;;;2.40;1.40;;;7.20;99.90;;;;;;5062910;28;20522;-69
2023/03/15 12:13:57;;;;;;;3.83;1.90;;;6.80;99.90;;;;;;5065977;28;20413;-68
2023/03/15 12:16:25;;;;;;;1.60;1.50;;;6.70;99.90;;;;;;5061675;28;20581;-68
2023/03/15 12:18:53;;;;;;;5.00;1.37;;;6.50;99.90;;;;;;5061410;28;20400;-69
2023/03/15 12:21:30;;;;;;;2.40;1.70;;;6.60;99.90;;;;;;5059698;28;20892;-69
2023/03/15 12:24:02;;;;;;;1.67;1.47;;;6.70;99.90;;;;;;5064568;28;20424;-69
2023/03/15 12:26:44;;;;;;;5.47;1.60;;;6.80;99.90;;;;;;5061099;28;20529;-68
2023/03/15 12:29:31;;;;;;;2.10;1.40;;;6.90;99.90;;;;;;5067405;28;20415;-68
2023/03/15 12:32:10;;;;;;;3.57;1.43;;;6.80;99.90;;;;;;5057675;28;20449;-69
2023/03/15 12:34:44;;;;;;;4.33;1.20;;;6.50;99.90;;;;;;5062269;28;20420;-68
2023/03/15 12:37:14;;;;;;;2.77;1.57;;;6.60;99.90;;;;;;5065192;28;20415;-68
2023/03/15 12:39:47;;;;;;;6.23;1.80;;;6.70;99.90;;;;;;5060715;28;20471;-67
2023/03/15 12:42:29;;;;;;;5.33;2.27;;;6.50;99.90;;;;;;5056402;28;21265;-68
2023/03/15 12:45:15;;;;;;;3.03;2.80;;;6.90;99.90;;;;;;5059381;28;20415;-69
2023/03/15 12:47:49;;;;;;;2.27;1.70;;;7.30;99.90;;;;;;5042393;28;20409;-69
2023/03/15 12:50:37;;;;;;;1.90;1.70;;;7.80;99.90;;;;;;5068528;28;20988;-68
2023/03/15 12:53:21;;;;;;;3.50;1.53;;;7.50;99.90;;;;;;5061948;28;20926;-69
2023/03/15 12:55:48;;;;;;;1.60;1.27;;;7.40;99.90;;;;;;5051458;28;20553;-69
2023/03/15 12:58:16;;;;;;;2.27;2.07;;;7.50;99.90;;;;;;5065704;28;20408;-68
2023/03/15 13:00:43;;;;;;;2.77;1.10;;;7.90;99.90;;;;;;5059006;28;20433;-69
2023/03/15 13:03:15;;;;;;;3.13;1.37;;;7.80;99.90;;;;;;5067264;28;20599;-68
2023/03/15 13:06:02;;;;;;;4.33;1.97;;;8.00;99.90;;;;;;5066490;28;20409;-69
2023/03/15 13:08:57;;;;;;;4.17;2.00;;;8.00;99.90;;;;;;5069234;28;20835;-69